sensor_id;sensor_type;location;lat;lon;timestamp;P1;durP1;ratioP1;P2;durP2;ratioP2
49548;SDS011;35450;44.518;7.466;2023-07-02T00:00:10;12.93;;;6.32;;
49548;SDS011;35450;44.518;7.466;2023-07-02T00:03:14;8.30;;;5.97;;
49548;SDS011;35450;44.518;7.466;2023-07-02T00:06:18;13.15;;;5.40;;
49548;SDS011;35450;44.518;7.466;2023-07-02T00:09:22;9.82;;;6.03;;
49548;SDS011;35450;44.518;7.466;2023-07-02T00:12:26;12.75;;;6.75;;
49548;SDS011;35450;44.518;7.466;2023-07-02T00:15:30;12.02;;;6.97;;
49548;SDS011;35450;44.518;7.466;2023-07-02T00:18:35;8.43;;;6.28;;
49548;SDS011;35450;44.518;7.466;2023-07-02T00:21:38;11.35;;;6.30;;
49548;SDS011;35450;44.518;7.466;2023-07-02T00:24:43;13.05;;;6.95;;
49548;SDS011;35450;44.518;7.466;2023-07-02T00:27:47;17.63;;;6.35;;
49548;SDS011;35450;44.518;7.466;2023-07-02T00:30:51;13.13;;;6.75;;
49548;SDS011;35450;44.518;7.466;2023-07-02T00:33:55;21.20;;;8.43;;
49548;SDS011;35450;44.518;7.466;2023-07-02T00:36:59;10.63;;;7.05;;
49548;SDS011;35450;44.518;7.466;2023-07-02T00:40:03;10.20;;;6.15;;
49548;SDS011;35450;44.518;7.466;2023-07-02T00:43:07;11.18;;;6.95;;
49548;SDS011;35450;44.518;7.466;2023-07-02T00:46:16;11.20;;;7.72;;
49548;SDS011;35450;44.518;7.466;2023-07-02T00:49:23;9.90;;;7.07;;
49548;SDS011;35450;44.518;7.466;2023-07-02T00:52:28;9.85;;;6.13;;
49548;SDS011;35450;44.518;7.466;2023-07-02T00:55:31;8.90;;;6.10;;
49548;SDS011;35450;44.518;7.466;2023-07-02T00:58:38;8.70;;;6.03;;
49548;SDS011;35450;44.518;7.466;2023-07-02T01:01:44;8.13;;;6.60;;
49548;SDS011;35450;44.518;7.466;2023-07-02T01:04:53;13.80;;;7.93;;
49548;SDS011;35450;44.518;7.466;2023-07-02T01:08:03;9.20;;;6.80;;
49548;SDS011;35450;44.518;7.466;2023-07-02T01:11:08;9.77;;;6.53;;
49548;SDS011;35450;44.518;7.466;2023-07-02T01:14:16;15.75;;;6.78;;
49548;SDS011;35450;44.518;7.466;2023-07-02T01:17:25;9.95;;;7.45;;
49548;SDS011;35450;44.518;7.466;2023-07-02T01:20:31;24.90;;;7.45;;
49548;SDS011;35450;44.518;7.466;2023-07-02T01:23:36;15.90;;;6.32;;
49548;SDS011;35450;44.518;7.466;2023-07-02T01:26:41;12.95;;;7.00;;
49548;SDS011;35450;44.518;7.466;2023-07-02T01:29:45;13.68;;;7.18;;
49548;SDS011;35450;44.518;7.466;2023-07-02T01:32:49;14.32;;;7.55;;
49548;SDS011;35450;44.518;7.466;2023-07-02T01:35:54;12.27;;;7.97;;
49548;SDS011;35450;44.518;7.466;2023-07-02T01:38:58;23.33;;;7.65;;
49548;SDS011;35450;44.518;7.466;2023-07-02T01:42:09;12.15;;;7.15;;
49548;SDS011;35450;44.518;7.466;2023-07-02T01:45:19;16.02;;;8.05;;
49548;SDS011;35450;44.518;7.466;2023-07-02T01:48:23;15.32;;;7.40;;
49548;SDS011;35450;44.518;7.466;2023-07-02T01:51:27;13.55;;;7.30;;
49548;SDS011;35450;44.518;7.466;2023-07-02T01:54:32;7.28;;;6.43;;
49548;SDS011;35450;44.518;7.466;2023-07-02T01:57:37;8.85;;;7.20;;
49548;SDS011;35450;44.518;7.466;2023-07-02T02:00:44;12.68;;;7.40;;
49548;SDS011;35450;44.518;7.466;2023-07-02T02:03:48;11.52;;;6.47;;
49548;SDS011;35450;44.518;7.466;2023-07-02T02:06:52;11.32;;;7.25;;
49548;SDS011;35450;44.518;7.466;2023-07-02T02:09:57;13.25;;;6.93;;
49548;SDS011;35450;44.518;7.466;2023-07-02T02:13:01;13.63;;;8.02;;
49548;SDS011;35450;44.518;7.466;2023-07-02T02:16:05;12.00;;;7.03;;
49548;SDS011;35450;44.518;7.466;2023-07-02T02:19:09;12.20;;;7.35;;
49548;SDS011;35450;44.518;7.466;2023-07-02T02:22:14;11.13;;;5.07;;
49548;SDS011;35450;44.518;7.466;2023-07-02T02:25:18;10.23;;;5.75;;
49548;SDS011;35450;44.518;7.466;2023-07-02T02:28:22;13.63;;;6.13;;
49548;SDS011;35450;44.518;7.466;2023-07-02T02:31:26;11.63;;;5.40;;
49548;SDS011;35450;44.518;7.466;2023-07-02T02:34:31;8.90;;;5.22;;
49548;SDS011;35450;44.518;7.466;2023-07-02T02:37:37;7.68;;;5.18;;
49548;SDS011;35450;44.518;7.466;2023-07-02T02:40:43;8.63;;;6.03;;
49548;SDS011;35450;44.518;7.466;2023-07-02T02:43:51;12.30;;;7.30;;
49548;SDS011;35450;44.518;7.466;2023-07-02T02:46:57;10.73;;;6.25;;
49548;SDS011;35450;44.518;7.466;2023-07-02T02:50:00;9.30;;;6.20;;
49548;SDS011;35450;44.518;7.466;2023-07-02T02:53:04;14.80;;;6.07;;
49548;SDS011;35450;44.518;7.466;2023-07-02T02:56:08;10.43;;;6.55;;
49548;SDS011;35450;44.518;7.466;2023-07-02T02:59:12;11.35;;;7.53;;
49548;SDS011;35450;44.518;7.466;2023-07-02T03:02:16;11.10;;;7.45;;
49548;SDS011;35450;44.518;7.466;2023-07-02T03:05:20;12.52;;;7.45;;
49548;SDS011;35450;44.518;7.466;2023-07-02T03:08:25;13.55;;;6.57;;
49548;SDS011;35450;44.518;7.466;2023-07-02T03:11:29;11.02;;;6.85;;
49548;SDS011;35450;44.518;7.466;2023-07-02T03:14:33;11.55;;;7.38;;
49548;SDS011;35450;44.518;7.466;2023-07-02T03:17:37;19.67;;;7.85;;
49548;SDS011;35450;44.518;7.466;2023-07-02T03:20:41;9.65;;;6.47;;
49548;SDS011;35450;44.518;7.466;2023-07-02T03:23:45;11.30;;;7.22;;
49548;SDS011;35450;44.518;7.466;2023-07-02T03:26:49;15.65;;;8.10;;
49548;SDS011;35450;44.518;7.466;2023-07-02T03:29:53;14.75;;;8.65;;
49548;SDS011;35450;44.518;7.466;2023-07-02T03:32:57;14.00;;;10.00;;
49548;SDS011;35450;44.518;7.466;2023-07-02T03:36:01;16.30;;;8.88;;
49548;SDS011;35450;44.518;7.466;2023-07-02T03:39:05;11.88;;;7.05;;
49548;SDS011;35450;44.518;7.466;2023-07-02T03:42:09;13.15;;;7.38;;
49548;SDS011;35450;44.518;7.466;2023-07-02T03:45:13;15.85;;;7.82;;
49548;SDS011;35450;44.518;7.466;2023-07-02T03:48:17;11.00;;;8.40;;
49548;SDS011;35450;44.518;7.466;2023-07-02T03:51:21;16.65;;;9.02;;
49548;SDS011;35450;44.518;7.466;2023-07-02T03:54:26;11.32;;;7.75;;
49548;SDS011;35450;44.518;7.466;2023-07-02T03:57:30;13.43;;;7.45;;
49548;SDS011;35450;44.518;7.466;2023-07-02T04:00:34;11.43;;;7.25;;
49548;SDS011;35450;44.518;7.466;2023-07-02T04:03:37;13.10;;;7.60;;
49548;SDS011;35450;44.518;7.466;2023-07-02T04:06:42;12.68;;;8.18;;
49548;SDS011;35450;44.518;7.466;2023-07-02T04:09:46;14.18;;;8.07;;
49548;SDS011;35450;44.518;7.466;2023-07-02T04:12:50;12.95;;;7.78;;
49548;SDS011;35450;44.518;7.466;2023-07-02T04:15:53;12.35;;;7.68;;
49548;SDS011;35450;44.518;7.466;2023-07-02T04:18:57;13.07;;;8.30;;
49548;SDS011;35450;44.518;7.466;2023-07-02T04:22:02;10.57;;;7.57;;
49548;SDS011;35450;44.518;7.466;2023-07-02T04:25:06;10.50;;;7.32;;
49548;SDS011;35450;44.518;7.466;2023-07-02T04:28:10;13.95;;;8.63;;
49548;SDS011;35450;44.518;7.466;2023-07-02T04:31:14;14.00;;;7.57;;
49548;SDS011;35450;44.518;7.466;2023-07-02T04:34:18;12.15;;;6.70;;
49548;SDS011;35450;44.518;7.466;2023-07-02T04:37:25;11.10;;;7.18;;
49548;SDS011;35450;44.518;7.466;2023-07-02T04:40:31;14.00;;;7.65;;
49548;SDS011;35450;44.518;7.466;2023-07-02T04:43:35;11.38;;;7.40;;
49548;SDS011;35450;44.518;7.466;2023-07-02T04:46:39;11.63;;;7.45;;
49548;SDS011;35450;44.518;7.466;2023-07-02T04:49:42;19.20;;;7.60;;
49548;SDS011;35450;44.518;7.466;2023-07-02T04:52:47;14.77;;;7.72;;
49548;SDS011;35450;44.518;7.466;2023-07-02T04:55:50;15.75;;;7.28;;
49548;SDS011;35450;44.518;7.466;2023-07-02T04:58:54;14.23;;;7.32;;
49548;SDS011;35450;44.518;7.466;2023-07-02T05:01:58;10.07;;;6.35;;
49548;SDS011;35450;44.518;7.466;2023-07-02T05:05:02;7.40;;;3.30;;
49548;SDS011;35450;44.518;7.466;2023-07-02T05:08:06;7.53;;;3.70;;
49548;SDS011;35450;44.518;7.466;2023-07-02T05:11:10;8.27;;;5.00;;
49548;SDS011;35450;44.518;7.466;2023-07-02T05:14:14;7.53;;;6.30;;
49548;SDS011;35450;44.518;7.466;2023-07-02T05:17:18;12.27;;;6.55;;
49548;SDS011;35450;44.518;7.466;2023-07-02T05:20:22;9.43;;;5.40;;
49548;SDS011;35450;44.518;7.466;2023-07-02T05:23:26;6.18;;;5.30;;
49548;SDS011;35450;44.518;7.466;2023-07-02T05:26:30;9.77;;;5.13;;
49548;SDS011;35450;44.518;7.466;2023-07-02T05:29:34;4.38;;;3.20;;
49548;SDS011;35450;44.518;7.466;2023-07-02T05:32:38;4.93;;;3.92;;
49548;SDS011;35450;44.518;7.466;2023-07-02T05:35:42;6.80;;;3.50;;
49548;SDS011;35450;44.518;7.466;2023-07-02T05:38:46;4.95;;;3.13;;
49548;SDS011;35450;44.518;7.466;2023-07-02T05:41:50;4.43;;;2.83;;
49548;SDS011;35450;44.518;7.466;2023-07-02T05:44:54;5.78;;;3.92;;
49548;SDS011;35450;44.518;7.466;2023-07-02T05:47:58;4.95;;;4.05;;
49548;SDS011;35450;44.518;7.466;2023-07-02T05:51:02;6.15;;;4.63;;
49548;SDS011;35450;44.518;7.466;2023-07-02T05:54:06;14.43;;;4.82;;
49548;SDS011;35450;44.518;7.466;2023-07-02T05:57:10;11.38;;;5.55;;
49548;SDS011;35450;44.518;7.466;2023-07-02T06:00:14;7.07;;;5.55;;
49548;SDS011;35450;44.518;7.466;2023-07-02T06:03:20;6.75;;;5.80;;
49548;SDS011;35450;44.518;7.466;2023-07-02T06:06:24;8.85;;;6.18;;
49548;SDS011;35450;44.518;7.466;2023-07-02T06:09:28;12.15;;;5.95;;
49548;SDS011;35450;44.518;7.466;2023-07-02T06:12:32;9.13;;;6.25;;
49548;SDS011;35450;44.518;7.466;2023-07-02T06:15:36;9.07;;;6.75;;
49548;SDS011;35450;44.518;7.466;2023-07-02T06:18:40;9.50;;;7.22;;
49548;SDS011;35450;44.518;7.466;2023-07-02T06:21:44;8.15;;;6.43;;
49548;SDS011;35450;44.518;7.466;2023-07-02T06:24:48;10.10;;;6.93;;
49548;SDS011;35450;44.518;7.466;2023-07-02T06:27:52;9.27;;;7.20;;
49548;SDS011;35450;44.518;7.466;2023-07-02T06:30:58;9.68;;;6.25;;
49548;SDS011;35450;44.518;7.466;2023-07-02T06:34:02;11.25;;;6.57;;
49548;SDS011;35450;44.518;7.466;2023-07-02T06:37:06;11.60;;;6.78;;
49548;SDS011;35450;44.518;7.466;2023-07-02T06:40:10;9.35;;;5.90;;
49548;SDS011;35450;44.518;7.466;2023-07-02T06:43:15;9.20;;;6.28;;
49548;SDS011;35450;44.518;7.466;2023-07-02T06:46:19;6.80;;;5.68;;
49548;SDS011;35450;44.518;7.466;2023-07-02T06:49:23;6.85;;;5.45;;
49548;SDS011;35450;44.518;7.466;2023-07-02T06:52:27;9.70;;;6.47;;
49548;SDS011;35450;44.518;7.466;2023-07-02T06:55:31;9.55;;;6.45;;
49548;SDS011;35450;44.518;7.466;2023-07-02T06:58:35;7.93;;;6.13;;
49548;SDS011;35450;44.518;7.466;2023-07-02T07:01:39;9.50;;;5.78;;
49548;SDS011;35450;44.518;7.466;2023-07-02T07:04:43;13.88;;;6.70;;
49548;SDS011;35450;44.518;7.466;2023-07-02T07:07:47;10.77;;;7.03;;
49548;SDS011;35450;44.518;7.466;2023-07-02T07:10:51;13.48;;;7.72;;
49548;SDS011;35450;44.518;7.466;2023-07-02T07:13:55;11.82;;;7.40;;
49548;SDS011;35450;44.518;7.466;2023-07-02T07:16:59;7.88;;;6.78;;
49548;SDS011;35450;44.518;7.466;2023-07-02T07:20:03;15.07;;;8.38;;
49548;SDS011;35450;44.518;7.466;2023-07-02T07:23:08;11.50;;;7.32;;
49548;SDS011;35450;44.518;7.466;2023-07-02T07:26:12;11.45;;;7.05;;
49548;SDS011;35450;44.518;7.466;2023-07-02T07:29:16;15.48;;;7.38;;
49548;SDS011;35450;44.518;7.466;2023-07-02T07:32:20;13.07;;;7.75;;
49548;SDS011;35450;44.518;7.466;2023-07-02T07:35:25;10.48;;;6.88;;
49548;SDS011;35450;44.518;7.466;2023-07-02T07:38:29;10.30;;;7.43;;
49548;SDS011;35450;44.518;7.466;2023-07-02T07:41:32;10.55;;;7.90;;
49548;SDS011;35450;44.518;7.466;2023-07-02T07:44:36;10.02;;;7.10;;
49548;SDS011;35450;44.518;7.466;2023-07-02T07:47:40;14.30;;;8.02;;
49548;SDS011;35450;44.518;7.466;2023-07-02T07:50:44;9.38;;;7.75;;
49548;SDS011;35450;44.518;7.466;2023-07-02T07:53:48;10.30;;;7.38;;
49548;SDS011;35450;44.518;7.466;2023-07-02T07:56:52;10.07;;;8.48;;
49548;SDS011;35450;44.518;7.466;2023-07-02T07:59:57;10.85;;;9.15;;
49548;SDS011;35450;44.518;7.466;2023-07-02T08:03:00;13.00;;;8.75;;
49548;SDS011;35450;44.518;7.466;2023-07-02T08:06:05;13.55;;;9.95;;
49548;SDS011;35450;44.518;7.466;2023-07-02T08:09:09;15.45;;;10.55;;
49548;SDS011;35450;44.518;7.466;2023-07-02T08:12:14;12.90;;;9.98;;
49548;SDS011;35450;44.518;7.466;2023-07-02T08:15:18;21.45;;;11.25;;
49548;SDS011;35450;44.518;7.466;2023-07-02T08:18:22;14.15;;;11.40;;
49548;SDS011;35450;44.518;7.466;2023-07-02T08:21:26;16.20;;;11.30;;
49548;SDS011;35450;44.518;7.466;2023-07-02T08:24:30;25.08;;;13.90;;
49548;SDS011;35450;44.518;7.466;2023-07-02T08:27:34;13.93;;;12.30;;
49548;SDS011;35450;44.518;7.466;2023-07-02T08:30:38;13.38;;;11.48;;
49548;SDS011;35450;44.518;7.466;2023-07-02T08:33:42;20.35;;;13.50;;
49548;SDS011;35450;44.518;7.466;2023-07-02T08:36:46;14.82;;;13.10;;
49548;SDS011;35450;44.518;7.466;2023-07-02T08:39:50;14.85;;;12.48;;
49548;SDS011;35450;44.518;7.466;2023-07-02T08:42:54;17.50;;;11.48;;
49548;SDS011;35450;44.518;7.466;2023-07-02T08:45:59;12.82;;;10.07;;
49548;SDS011;35450;44.518;7.466;2023-07-02T08:49:03;17.58;;;11.32;;
49548;SDS011;35450;44.518;7.466;2023-07-02T08:52:07;12.93;;;10.18;;
49548;SDS011;35450;44.518;7.466;2023-07-02T08:55:11;14.25;;;10.68;;
49548;SDS011;35450;44.518;7.466;2023-07-02T08:58:15;16.80;;;10.43;;
49548;SDS011;35450;44.518;7.466;2023-07-02T09:01:20;13.45;;;10.63;;
49548;SDS011;35450;44.518;7.466;2023-07-02T09:04:24;14.80;;;11.30;;
49548;SDS011;35450;44.518;7.466;2023-07-02T09:07:29;16.30;;;11.45;;
49548;SDS011;35450;44.518;7.466;2023-07-02T09:10:34;16.17;;;11.63;;
49548;SDS011;35450;44.518;7.466;2023-07-02T09:13:48;15.60;;;12.27;;
49548;SDS011;35450;44.518;7.466;2023-07-02T09:20:10;14.73;;;10.10;;
49548;SDS011;35450;44.518;7.466;2023-07-02T09:23:14;14.13;;;10.25;;
49548;SDS011;35450;44.518;7.466;2023-07-02T09:26:21;18.08;;;13.57;;
49548;SDS011;35450;44.518;7.466;2023-07-02T09:32:32;14.82;;;11.00;;
49548;SDS011;35450;44.518;7.466;2023-07-02T09:35:35;11.23;;;9.27;;
49548;SDS011;35450;44.518;7.466;2023-07-02T09:38:41;14.00;;;10.88;;
49548;SDS011;35450;44.518;7.466;2023-07-02T09:41:45;15.65;;;10.98;;
49548;SDS011;35450;44.518;7.466;2023-07-02T09:44:53;16.15;;;10.43;;
49548;SDS011;35450;44.518;7.466;2023-07-02T09:47:58;11.50;;;9.25;;
49548;SDS011;35450;44.518;7.466;2023-07-02T09:51:03;13.95;;;10.18;;
49548;SDS011;35450;44.518;7.466;2023-07-02T09:54:07;11.90;;;8.45;;
49548;SDS011;35450;44.518;7.466;2023-07-02T09:57:12;19.75;;;11.52;;
49548;SDS011;35450;44.518;7.466;2023-07-02T10:00:16;14.48;;;10.27;;
49548;SDS011;35450;44.518;7.466;2023-07-02T10:03:27;16.45;;;9.93;;
49548;SDS011;35450;44.518;7.466;2023-07-02T10:06:43;12.75;;;10.27;;
49548;SDS011;35450;44.518;7.466;2023-07-02T10:09:51;13.57;;;10.32;;
49548;SDS011;35450;44.518;7.466;2023-07-02T10:12:55;14.38;;;8.05;;
49548;SDS011;35450;44.518;7.466;2023-07-02T10:16:03;14.05;;;9.70;;
49548;SDS011;35450;44.518;7.466;2023-07-02T10:19:11;12.48;;;9.65;;
49548;SDS011;35450;44.518;7.466;2023-07-02T10:22:15;15.15;;;10.10;;
49548;SDS011;35450;44.518;7.466;2023-07-02T10:25:26;14.27;;;10.38;;
49548;SDS011;35450;44.518;7.466;2023-07-02T10:28:31;12.30;;;10.15;;
49548;SDS011;35450;44.518;7.466;2023-07-02T10:31:35;12.75;;;9.63;;
49548;SDS011;35450;44.518;7.466;2023-07-02T10:34:40;10.27;;;7.25;;
49548;SDS011;35450;44.518;7.466;2023-07-02T10:37:44;9.50;;;7.90;;
49548;SDS011;35450;44.518;7.466;2023-07-02T10:40:56;14.23;;;8.80;;
49548;SDS011;35450;44.518;7.466;2023-07-02T10:44:07;13.10;;;8.27;;
49548;SDS011;35450;44.518;7.466;2023-07-02T10:47:14;10.82;;;7.97;;
49548;SDS011;35450;44.518;7.466;2023-07-02T10:50:19;11.00;;;8.32;;
49548;SDS011;35450;44.518;7.466;2023-07-02T10:53:23;11.95;;;8.60;;
49548;SDS011;35450;44.518;7.466;2023-07-02T10:56:27;14.90;;;8.55;;
49548;SDS011;35450;44.518;7.466;2023-07-02T10:59:31;14.13;;;9.48;;
49548;SDS011;35450;44.518;7.466;2023-07-02T11:02:38;13.57;;;8.80;;
49548;SDS011;35450;44.518;7.466;2023-07-02T11:05:43;12.18;;;9.05;;
49548;SDS011;35450;44.518;7.466;2023-07-02T11:08:48;11.93;;;8.43;;
49548;SDS011;35450;44.518;7.466;2023-07-02T11:11:58;14.80;;;10.38;;
49548;SDS011;35450;44.518;7.466;2023-07-02T11:18:12;11.93;;;9.57;;
49548;SDS011;35450;44.518;7.466;2023-07-02T11:21:20;15.45;;;10.98;;
49548;SDS011;35450;44.518;7.466;2023-07-02T11:27:37;15.68;;;10.23;;
49548;SDS011;35450;44.518;7.466;2023-07-02T11:30:45;15.00;;;11.13;;
49548;SDS011;35450;44.518;7.466;2023-07-02T11:33:49;9.98;;;8.43;;
49548;SDS011;35450;44.518;7.466;2023-07-02T11:36:53;15.75;;;10.25;;
49548;SDS011;35450;44.518;7.466;2023-07-02T11:39:57;12.80;;;9.27;;
49548;SDS011;35450;44.518;7.466;2023-07-02T11:43:01;18.05;;;11.20;;
49548;SDS011;35450;44.518;7.466;2023-07-02T11:46:05;10.98;;;9.40;;
49548;SDS011;35450;44.518;7.466;2023-07-02T11:49:08;13.60;;;10.27;;
49548;SDS011;35450;44.518;7.466;2023-07-02T11:52:12;12.38;;;8.93;;
49548;SDS011;35450;44.518;7.466;2023-07-02T11:55:18;15.50;;;9.35;;
49548;SDS011;35450;44.518;7.466;2023-07-02T11:58:22;12.85;;;8.95;;
49548;SDS011;35450;44.518;7.466;2023-07-02T12:01:26;10.27;;;7.93;;
49548;SDS011;35450;44.518;7.466;2023-07-02T12:04:30;8.63;;;7.47;;
49548;SDS011;35450;44.518;7.466;2023-07-02T12:07:34;10.30;;;8.05;;
49548;SDS011;35450;44.518;7.466;2023-07-02T12:10:38;9.38;;;7.75;;
49548;SDS011;35450;44.518;7.466;2023-07-02T12:13:43;12.68;;;8.73;;
49548;SDS011;35450;44.518;7.466;2023-07-02T12:16:47;11.43;;;6.55;;
49548;SDS011;35450;44.518;7.466;2023-07-02T12:19:51;8.55;;;5.47;;
49548;SDS011;35450;44.518;7.466;2023-07-02T12:22:55;9.10;;;7.10;;
49548;SDS011;35450;44.518;7.466;2023-07-02T12:25:59;8.73;;;5.70;;
49548;SDS011;35450;44.518;7.466;2023-07-02T12:29:03;7.63;;;4.65;;
49548;SDS011;35450;44.518;7.466;2023-07-02T12:32:07;7.15;;;3.80;;
49548;SDS011;35450;44.518;7.466;2023-07-02T12:35:11;5.88;;;4.50;;
49548;SDS011;35450;44.518;7.466;2023-07-02T12:38:15;8.27;;;3.78;;
49548;SDS011;35450;44.518;7.466;2023-07-02T12:41:19;7.07;;;4.65;;
49548;SDS011;35450;44.518;7.466;2023-07-02T12:44:23;6.15;;;4.43;;
49548;SDS011;35450;44.518;7.466;2023-07-02T12:47:27;6.38;;;4.30;;
49548;SDS011;35450;44.518;7.466;2023-07-02T12:50:31;5.45;;;3.83;;
49548;SDS011;35450;44.518;7.466;2023-07-02T12:53:35;6.25;;;4.00;;
49548;SDS011;35450;44.518;7.466;2023-07-02T12:56:39;4.55;;;3.60;;
49548;SDS011;35450;44.518;7.466;2023-07-02T12:59:43;6.57;;;3.65;;
49548;SDS011;35450;44.518;7.466;2023-07-02T13:02:47;6.03;;;3.75;;
49548;SDS011;35450;44.518;7.466;2023-07-02T13:05:52;3.63;;;3.25;;
49548;SDS011;35450;44.518;7.466;2023-07-02T13:08:56;4.28;;;3.33;;
49548;SDS011;35450;44.518;7.466;2023-07-02T13:12:00;5.82;;;3.85;;
49548;SDS011;35450;44.518;7.466;2023-07-02T13:15:04;5.88;;;3.63;;
49548;SDS011;35450;44.518;7.466;2023-07-02T13:18:09;3.20;;;2.58;;
49548;SDS011;35450;44.518;7.466;2023-07-02T13:21:13;4.88;;;2.88;;
49548;SDS011;35450;44.518;7.466;2023-07-02T13:24:17;6.13;;;3.03;;
49548;SDS011;35450;44.518;7.466;2023-07-02T13:27:21;4.90;;;3.10;;
49548;SDS011;35450;44.518;7.466;2023-07-02T13:30:25;9.90;;;3.25;;
49548;SDS011;35450;44.518;7.466;2023-07-02T13:33:31;5.05;;;3.03;;
49548;SDS011;35450;44.518;7.466;2023-07-02T13:36:35;7.18;;;2.97;;
49548;SDS011;35450;44.518;7.466;2023-07-02T13:39:39;3.95;;;3.28;;
49548;SDS011;35450;44.518;7.466;2023-07-02T13:42:43;4.22;;;3.20;;
49548;SDS011;35450;44.518;7.466;2023-07-02T13:45:47;5.15;;;3.00;;
49548;SDS011;35450;44.518;7.466;2023-07-02T13:48:51;5.05;;;2.90;;
49548;SDS011;35450;44.518;7.466;2023-07-02T13:51:55;4.18;;;2.40;;
49548;SDS011;35450;44.518;7.466;2023-07-02T13:54:59;7.68;;;2.60;;
49548;SDS011;35450;44.518;7.466;2023-07-02T13:58:03;7.18;;;2.47;;
49548;SDS011;35450;44.518;7.466;2023-07-02T14:01:07;5.80;;;2.95;;
49548;SDS011;35450;44.518;7.466;2023-07-02T14:04:11;9.77;;;2.72;;
49548;SDS011;35450;44.518;7.466;2023-07-02T14:07:16;7.32;;;2.67;;
49548;SDS011;35450;44.518;7.466;2023-07-02T14:10:20;4.38;;;2.88;;
49548;SDS011;35450;44.518;7.466;2023-07-02T14:13:25;3.70;;;2.13;;
49548;SDS011;35450;44.518;7.466;2023-07-02T14:16:29;10.30;;;2.97;;
49548;SDS011;35450;44.518;7.466;2023-07-02T14:19:38;4.82;;;2.67;;
49548;SDS011;35450;44.518;7.466;2023-07-02T14:22:42;5.78;;;1.90;;
49548;SDS011;35450;44.518;7.466;2023-07-02T14:25:46;10.85;;;3.00;;
49548;SDS011;35450;44.518;7.466;2023-07-02T14:28:50;5.40;;;2.58;;
49548;SDS011;35450;44.518;7.466;2023-07-02T14:31:55;7.55;;;2.78;;
49548;SDS011;35450;44.518;7.466;2023-07-02T14:34:59;6.10;;;2.70;;
49548;SDS011;35450;44.518;7.466;2023-07-02T14:38:04;6.90;;;2.22;;
49548;SDS011;35450;44.518;7.466;2023-07-02T14:41:07;12.85;;;2.40;;
49548;SDS011;35450;44.518;7.466;2023-07-02T14:44:12;7.72;;;2.85;;
49548;SDS011;35450;44.518;7.466;2023-07-02T14:47:16;6.07;;;1.83;;
49548;SDS011;35450;44.518;7.466;2023-07-02T14:50:20;9.57;;;2.83;;
49548;SDS011;35450;44.518;7.466;2023-07-02T14:53:25;8.80;;;2.63;;
49548;SDS011;35450;44.518;7.466;2023-07-02T14:56:30;5.57;;;2.05;;
49548;SDS011;35450;44.518;7.466;2023-07-02T14:59:34;7.10;;;2.45;;
49548;SDS011;35450;44.518;7.466;2023-07-02T15:02:38;9.43;;;2.72;;
49548;SDS011;35450;44.518;7.466;2023-07-02T15:05:42;6.97;;;2.10;;
49548;SDS011;35450;44.518;7.466;2023-07-02T15:08:48;6.82;;;2.40;;
49548;SDS011;35450;44.518;7.466;2023-07-02T15:11:52;12.82;;;2.85;;
49548;SDS011;35450;44.518;7.466;2023-07-02T15:14:56;7.68;;;2.45;;
49548;SDS011;35450;44.518;7.466;2023-07-02T15:18:00;8.30;;;2.10;;
49548;SDS011;35450;44.518;7.466;2023-07-02T15:21:04;10.07;;;2.58;;
49548;SDS011;35450;44.518;7.466;2023-07-02T15:24:08;9.35;;;2.45;;
49548;SDS011;35450;44.518;7.466;2023-07-02T15:27:15;9.85;;;2.38;;
49548;SDS011;35450;44.518;7.466;2023-07-02T15:30:19;9.23;;;2.55;;
49548;SDS011;35450;44.518;7.466;2023-07-02T15:33:23;4.97;;;1.88;;
49548;SDS011;35450;44.518;7.466;2023-07-02T15:36:28;6.53;;;2.22;;
49548;SDS011;35450;44.518;7.466;2023-07-02T15:39:38;8.07;;;2.45;;
49548;SDS011;35450;44.518;7.466;2023-07-02T15:42:42;8.23;;;2.60;;
49548;SDS011;35450;44.518;7.466;2023-07-02T15:45:46;9.75;;;2.58;;
49548;SDS011;35450;44.518;7.466;2023-07-02T15:48:50;8.27;;;2.30;;
49548;SDS011;35450;44.518;7.466;2023-07-02T15:51:55;7.63;;;2.47;;
49548;SDS011;35450;44.518;7.466;2023-07-02T15:54:59;6.65;;;2.42;;
49548;SDS011;35450;44.518;7.466;2023-07-02T15:58:03;6.55;;;2.08;;
49548;SDS011;35450;44.518;7.466;2023-07-02T16:01:12;4.85;;;2.00;;
49548;SDS011;35450;44.518;7.466;2023-07-02T16:04:17;11.25;;;2.28;;
49548;SDS011;35450;44.518;7.466;2023-07-02T16:07:22;12.57;;;2.75;;
49548;SDS011;35450;44.518;7.466;2023-07-02T16:10:26;7.38;;;2.25;;
49548;SDS011;35450;44.518;7.466;2023-07-02T16:13:30;6.25;;;2.00;;
49548;SDS011;35450;44.518;7.466;2023-07-02T16:16:34;4.07;;;1.80;;
49548;SDS011;35450;44.518;7.466;2023-07-02T16:19:41;6.20;;;1.88;;
49548;SDS011;35450;44.518;7.466;2023-07-02T16:22:45;8.35;;;2.05;;
49548;SDS011;35450;44.518;7.466;2023-07-02T16:25:53;12.90;;;2.35;;
49548;SDS011;35450;44.518;7.466;2023-07-02T16:28:58;5.65;;;2.00;;
49548;SDS011;35450;44.518;7.466;2023-07-02T16:32:03;10.48;;;2.45;;
49548;SDS011;35450;44.518;7.466;2023-07-02T16:35:08;5.78;;;2.08;;
49548;SDS011;35450;44.518;7.466;2023-07-02T16:38:12;7.75;;;1.75;;
49548;SDS011;35450;44.518;7.466;2023-07-02T16:41:16;7.00;;;2.00;;
49548;SDS011;35450;44.518;7.466;2023-07-02T16:44:25;7.07;;;1.83;;
49548;SDS011;35450;44.518;7.466;2023-07-02T16:47:30;9.48;;;2.30;;
49548;SDS011;35450;44.518;7.466;2023-07-02T16:50:34;7.00;;;1.73;;
49548;SDS011;35450;44.518;7.466;2023-07-02T16:53:37;11.63;;;3.03;;
49548;SDS011;35450;44.518;7.466;2023-07-02T16:56:42;9.35;;;2.30;;
49548;SDS011;35450;44.518;7.466;2023-07-02T17:00:07;22.52;;;2.75;;
49548;SDS011;35450;44.518;7.466;2023-07-02T17:03:14;6.60;;;2.20;;
49548;SDS011;35450;44.518;7.466;2023-07-02T17:06:18;12.98;;;2.00;;
49548;SDS011;35450;44.518;7.466;2023-07-02T17:09:33;8.20;;;2.30;;
49548;SDS011;35450;44.518;7.466;2023-07-02T17:12:40;8.60;;;1.95;;
49548;SDS011;35450;44.518;7.466;2023-07-02T17:15:43;6.35;;;2.08;;
49548;SDS011;35450;44.518;7.466;2023-07-02T17:18:49;10.65;;;1.90;;
49548;SDS011;35450;44.518;7.466;2023-07-02T17:21:53;8.43;;;2.30;;
49548;SDS011;35450;44.518;7.466;2023-07-02T17:24:57;16.85;;;2.38;;
49548;SDS011;35450;44.518;7.466;2023-07-02T17:28:04;5.20;;;1.73;;
49548;SDS011;35450;44.518;7.466;2023-07-02T17:31:07;12.52;;;2.10;;
49548;SDS011;35450;44.518;7.466;2023-07-02T17:34:12;9.98;;;2.22;;
49548;SDS011;35450;44.518;7.466;2023-07-02T17:37:20;7.00;;;1.85;;
49548;SDS011;35450;44.518;7.466;2023-07-02T17:40:24;9.05;;;2.08;;
49548;SDS011;35450;44.518;7.466;2023-07-02T17:43:28;5.30;;;1.73;;
49548;SDS011;35450;44.518;7.466;2023-07-02T17:46:31;6.28;;;2.13;;
49548;SDS011;35450;44.518;7.466;2023-07-02T17:49:36;8.98;;;2.10;;
49548;SDS011;35450;44.518;7.466;2023-07-02T17:52:42;7.63;;;1.75;;
49548;SDS011;35450;44.518;7.466;2023-07-02T17:55:49;11.82;;;2.33;;
49548;SDS011;35450;44.518;7.466;2023-07-02T17:58:54;11.65;;;2.97;;
49548;SDS011;35450;44.518;7.466;2023-07-02T18:01:58;9.60;;;2.83;;
49548;SDS011;35450;44.518;7.466;2023-07-02T18:05:02;9.68;;;2.40;;
49548;SDS011;35450;44.518;7.466;2023-07-02T18:08:07;10.40;;;2.30;;
49548;SDS011;35450;44.518;7.466;2023-07-02T18:11:11;7.53;;;2.00;;
49548;SDS011;35450;44.518;7.466;2023-07-02T18:14:15;7.75;;;2.00;;
49548;SDS011;35450;44.518;7.466;2023-07-02T18:17:19;4.50;;;1.60;;
49548;SDS011;35450;44.518;7.466;2023-07-02T18:20:23;8.45;;;2.47;;
49548;SDS011;35450;44.518;7.466;2023-07-02T18:23:27;10.10;;;2.30;;
49548;SDS011;35450;44.518;7.466;2023-07-02T18:26:32;8.48;;;2.05;;
49548;SDS011;35450;44.518;7.466;2023-07-02T18:29:36;7.72;;;1.77;;
49548;SDS011;35450;44.518;7.466;2023-07-02T18:32:41;7.32;;;2.10;;